createdAt,value
2023-03-30T00:01:15.384Z,7.30
2023-03-30T00:03:44.248Z,6.60
2023-03-30T00:06:14.898Z,7.70
2023-03-30T00:08:41.974Z,7.00
2023-03-30T00:11:17.104Z,7.90
2023-03-30T00:13:45.005Z,6.50
2023-03-30T00:16:14.476Z,7.27
2023-03-30T00:18:41.891Z,6.47
2023-03-30T00:21:11.207Z,7.10
2023-03-30T00:23:40.058Z,6.47
2023-03-30T00:26:07.798Z,7.37
2023-03-30T00:28:35.118Z,7.73
2023-03-30T00:31:02.915Z,7.50
2023-03-30T00:33:44.641Z,6.77
2023-03-30T00:36:13.878Z,7.80
2023-03-30T00:38:41.101Z,7.00
2023-03-30T00:41:09.360Z,6.97
2023-03-30T00:44:02.331Z,7.73
2023-03-30T00:46:31.735Z,8.20
2023-03-30T00:49:05.246Z,6.20
2023-03-30T00:51:38.465Z,7.17
2023-03-30T00:54:16.698Z,7.93
2023-03-30T00:56:44.096Z,7.90
2023-03-30T00:59:11.500Z,7.53
2023-03-30T01:01:41.415Z,6.97
2023-03-30T01:04:11.216Z,7.77
2023-03-30T01:06:40.901Z,6.90
2023-03-30T01:09:08.575Z,7.90
2023-03-30T01:11:35.788Z,6.43
2023-03-30T01:14:10.862Z,7.20
2023-03-30T01:17:01.554Z,7.80
2023-03-30T01:19:53.059Z,7.90
2023-03-30T01:23:04.333Z,6.33
2023-03-30T01:26:06.983Z,8.10
2023-03-30T01:28:50.729Z,8.80
2023-03-30T01:31:48.900Z,9.07
2023-03-30T01:35:20.831Z,9.03
2023-03-30T01:38:37.342Z,7.83
2023-03-30T01:41:25.919Z,7.10
2023-03-30T01:44:09.046Z,8.23
2023-03-30T01:46:55.564Z,7.87
2023-03-30T01:49:38.004Z,7.53
2023-03-30T01:52:38.606Z,7.60
2023-03-30T01:55:20.641Z,8.27
2023-03-30T01:57:58.850Z,7.53
2023-03-30T02:00:27.688Z,9.17
2023-03-30T02:03:06.739Z,7.63
2023-03-30T02:05:36.184Z,9.30
2023-03-30T02:08:16.379Z,8.80
2023-03-30T02:10:45.889Z,8.20
2023-03-30T02:13:14.323Z,8.87
2023-03-30T02:15:50.092Z,9.07
2023-03-30T02:18:19.976Z,9.20
2023-03-30T02:20:49.462Z,10.23
2023-03-30T02:23:20.996Z,10.00
2023-03-30T02:25:48.455Z,9.33
2023-03-30T02:28:18.500Z,9.97
2023-03-30T02:30:47.310Z,10.43
2023-03-30T02:33:50.867Z,10.23
2023-03-30T02:36:38.691Z,10.37
2023-03-30T02:39:50.595Z,10.47
2023-03-30T02:42:55.424Z,10.80
2023-03-30T02:46:02.567Z,10.80
2023-03-30T02:48:58.696Z,11.00
2023-03-30T02:51:29.913Z,13.00
2023-03-30T02:54:43.886Z,12.23
2023-03-30T02:57:55.009Z,12.20
2023-03-30T03:01:14.718Z,12.60
2023-03-30T03:03:54.029Z,12.23
2023-03-30T03:06:23.930Z,13.53
2023-03-30T03:08:56.258Z,13.97
2023-03-30T03:11:27.219Z,13.73
2023-03-30T03:13:55.716Z,15.17
2023-03-30T03:16:24.146Z,13.70
2023-03-30T03:19:08.916Z,15.50
2023-03-30T03:21:37.065Z,15.90
2023-03-30T03:24:06.578Z,15.60
2023-03-30T03:26:53.086Z,16.90
2023-03-30T03:29:23.115Z,15.10
2023-03-30T03:31:50.355Z,16.73
2023-03-30T03:34:20.522Z,15.50
2023-03-30T03:36:57.300Z,15.90
2023-03-30T03:39:27.166Z,16.57
2023-03-30T03:42:01.591Z,16.27
2023-03-30T03:44:28.760Z,15.73
2023-03-30T03:46:56.283Z,17.53
2023-03-30T03:49:24.058Z,17.20
2023-03-30T03:51:51.121Z,18.77
2023-03-30T03:54:18.369Z,18.00
2023-03-30T03:56:48.195Z,18.30
2023-03-30T03:59:15.633Z,17.47
2023-03-30T04:01:42.789Z,16.67
2023-03-30T04:04:09.922Z,17.73
2023-03-30T04:06:37.434Z,18.30
2023-03-30T04:09:04.651Z,18.03
2023-03-30T04:12:07.030Z,16.43
2023-03-30T04:14:52.711Z,16.77
2023-03-30T04:17:50.050Z,17.40
2023-03-30T04:20:30.314Z,16.57
2023-03-30T04:23:09.923Z,16.57
2023-03-30T04:25:55.695Z,16.47
2023-03-30T04:28:43.412Z,17.00
2023-03-30T04:31:35.958Z,15.07
2023-03-30T04:34:35.310Z,17.43
2023-03-30T04:37:30.371Z,16.93
2023-03-30T04:40:16.398Z,14.60
2023-03-30T04:42:52.840Z,18.50
2023-03-30T04:45:58.343Z,16.30
2023-03-30T04:48:44.179Z,15.87
2023-03-30T04:51:40.952Z,17.20
2023-03-30T04:54:29.235Z,17.60
2023-03-30T04:57:17.581Z,17.00
2023-03-30T04:59:58.277Z,16.63
2023-03-30T05:02:54.412Z,16.50
2023-03-30T05:05:51.316Z,15.83
2023-03-30T05:08:47.657Z,15.70
2023-03-30T05:11:47.142Z,16.60
2023-03-30T05:14:23.164Z,16.10
2023-03-30T05:17:01.945Z,15.87
2023-03-30T05:19:38.235Z,16.83
2023-03-30T05:22:24.343Z,14.97
2023-03-30T05:25:00.514Z,14.60
2023-03-30T05:28:00.125Z,14.00
2023-03-30T05:30:41.761Z,14.70
2023-03-30T05:33:11.706Z,14.23
2023-03-30T05:35:59.220Z,15.60
2023-03-30T05:38:57.360Z,13.57
2023-03-30T05:41:49.407Z,15.07
2023-03-30T05:44:26.769Z,14.43
2023-03-30T05:47:27.872Z,16.37
2023-03-30T05:50:09.359Z,14.37
2023-03-30T05:52:47.987Z,14.87
2023-03-30T05:55:18.151Z,13.67
2023-03-30T05:58:04.116Z,14.07
2023-03-30T06:00:49.799Z,14.10
2023-03-30T06:03:29.532Z,14.97
2023-03-30T06:05:57.061Z,13.60
2023-03-30T06:08:24.406Z,13.50
2023-03-30T06:10:57.540Z,14.30
2023-03-30T06:13:27.949Z,13.23
2023-03-30T06:15:56.165Z,13.40
2023-03-30T06:18:26.572Z,14.93
2023-03-30T06:21:07.783Z,14.07
2023-03-30T06:23:49.261Z,14.17
2023-03-30T06:26:21.648Z,13.83
2023-03-30T06:28:49.392Z,13.43
2023-03-30T06:31:16.643Z,13.47
2023-03-30T06:33:45.144Z,13.60
2023-03-30T06:36:14.676Z,14.43
2023-03-30T06:38:44.715Z,12.70
2023-03-30T06:41:12.902Z,12.73
2023-03-30T06:43:43.411Z,11.83
2023-03-30T06:46:15.634Z,12.10
2023-03-30T06:48:48.489Z,12.40
2023-03-30T06:51:38.006Z,12.67
2023-03-30T06:54:07.064Z,12.73
2023-03-30T06:56:34.726Z,11.23
2023-03-30T06:59:08.972Z,12.57
2023-03-30T07:01:56.385Z,12.47
2023-03-30T07:04:38.117Z,12.00
2023-03-30T07:07:19.908Z,11.17
2023-03-30T07:09:47.861Z,10.93
2023-03-30T07:12:15.075Z,11.43
2023-03-30T07:14:42.809Z,11.30
2023-03-30T07:17:10.261Z,4.30
2023-03-30T07:19:37.613Z,2.50
2023-03-30T07:22:04.975Z,2.07
2023-03-30T07:24:33.763Z,1.97
2023-03-30T07:27:01.564Z,1.60
2023-03-30T07:29:29.398Z,2.10
2023-03-30T07:31:57.262Z,2.00
2023-03-30T07:34:24.826Z,3.00
2023-03-30T07:36:55.454Z,2.13
2023-03-30T07:39:26.779Z,2.43
2023-03-30T07:41:54.214Z,2.33
2023-03-30T07:44:22.859Z,1.80
2023-03-30T07:46:50.186Z,2.33
2023-03-30T07:49:23.304Z,2.33
2023-03-30T07:51:51.891Z,1.43
2023-03-30T07:54:26.413Z,1.70
2023-03-30T07:57:06.780Z,2.20
2023-03-30T07:59:34.584Z,1.60
2023-03-30T08:02:14.977Z,2.07
2023-03-30T08:04:54.114Z,3.10
2023-03-30T08:07:32.415Z,1.80
2023-03-30T08:10:09.341Z,1.70
2023-03-30T08:12:37.823Z,2.10
2023-03-30T08:15:05.844Z,2.07
2023-03-30T08:17:33.479Z,1.87
2023-03-30T08:20:02.066Z,1.50
2023-03-30T08:22:29.430Z,2.10
2023-03-30T08:24:57.178Z,2.27
2023-03-30T08:27:24.550Z,1.87
2023-03-30T08:29:54.452Z,2.33
2023-03-30T08:32:24.608Z,1.67
2023-03-30T08:34:53.966Z,1.87
2023-03-30T08:37:21.460Z,2.73
2023-03-30T08:39:48.896Z,7.20
2023-03-30T08:42:43.687Z,9.30
2023-03-30T08:45:12.970Z,8.43
2023-03-30T08:47:46.139Z,10.20
2023-03-30T08:50:36.130Z,9.53
2023-03-30T08:53:08.331Z,9.40
2023-03-30T08:55:44.900Z,8.57
2023-03-30T08:58:48.438Z,9.63
2023-03-30T09:01:58.924Z,9.10
2023-03-30T09:05:13.452Z,10.17
2023-03-30T09:08:22.870Z,9.93
2023-03-30T09:11:02.535Z,9.70
2023-03-30T09:13:35.081Z,9.67
2023-03-30T09:16:30.034Z,10.07
2023-03-30T09:18:59.392Z,9.63
2023-03-30T09:21:31.542Z,9.47
2023-03-30T09:24:01.484Z,9.53
2023-03-30T09:26:44.080Z,9.80
2023-03-30T09:29:14.000Z,9.00
2023-03-30T09:31:52.337Z,6.23
2023-03-30T09:34:39.193Z,3.77
2023-03-30T09:37:22.468Z,3.37
2023-03-30T09:39:50.855Z,2.87
2023-03-30T09:42:48.310Z,1.93
2023-03-30T09:45:23.274Z,1.77
2023-03-30T09:47:50.866Z,2.17
2023-03-30T09:50:27.703Z,2.20
2023-03-30T09:53:07.561Z,2.07
2023-03-30T09:55:36.720Z,2.33
2023-03-30T09:58:34.618Z,2.50
2023-03-30T10:01:18.484Z,2.50
2023-03-30T10:04:06.780Z,3.80
2023-03-30T10:06:40.083Z,3.20
2023-03-30T10:09:12.682Z,2.97
2023-03-30T10:11:54.108Z,2.73
2023-03-30T10:14:36.785Z,2.87
2023-03-30T10:17:05.492Z,3.77
2023-03-30T10:19:38.392Z,3.27
2023-03-30T10:22:17.877Z,3.20
2023-03-30T10:24:57.088Z,2.60
2023-03-30T10:27:34.334Z,3.00
2023-03-30T10:30:11.465Z,2.43
2023-03-30T10:32:38.642Z,2.23
2023-03-30T10:35:10.573Z,2.30
2023-03-30T10:37:46.461Z,3.30
2023-03-30T10:40:22.114Z,2.60
2023-03-30T10:42:55.997Z,2.37
2023-03-30T10:45:35.092Z,1.90
2023-03-30T10:48:31.255Z,2.70
2023-03-30T10:51:11.197Z,2.00
2023-03-30T10:53:58.530Z,1.73
2023-03-30T10:56:52.262Z,1.20
2023-03-30T10:59:54.832Z,1.30
2023-03-30T11:03:02.327Z,2.33
2023-03-30T11:05:33.584Z,2.20
2023-03-30T11:08:29.818Z,1.70
2023-03-30T11:10:59.686Z,0.90
2023-03-30T11:13:32.592Z,1.07
2023-03-30T11:16:31.460Z,1.10
2023-03-30T11:19:24.628Z,1.43
2023-03-30T11:22:40.033Z,0.80
2023-03-30T11:25:22.448Z,1.43
2023-03-30T11:28:23.369Z,0.90
2023-03-30T11:30:55.412Z,1.10
2023-03-30T11:33:37.100Z,0.80
2023-03-30T11:36:18.849Z,1.00
2023-03-30T11:39:18.444Z,1.00
2023-03-30T11:42:17.898Z,0.80
2023-03-30T11:44:45.131Z,1.27
2023-03-30T11:47:50.470Z,1.97
2023-03-30T11:51:08.141Z,1.63
2023-03-30T11:53:41.167Z,1.90
2023-03-30T11:56:19.300Z,1.33
2023-03-30T11:59:09.502Z,1.10
2023-03-30T12:01:57.771Z,1.10
2023-03-30T12:04:43.555Z,0.90
2023-03-30T12:07:53.645Z,1.10
2023-03-30T12:10:28.590Z,1.13
2023-03-30T12:12:56.495Z,1.13
2023-03-30T12:15:49.116Z,1.57
2023-03-30T12:18:41.188Z,1.60
2023-03-30T12:21:11.063Z,1.37
2023-03-30T12:24:04.866Z,1.50
2023-03-30T12:26:34.370Z,1.60
2023-03-30T12:29:44.386Z,1.83
2023-03-30T12:32:02.966Z,2.60
2023-03-30T12:34:37.682Z,3.00
2023-03-30T12:37:35.708Z,2.20
2023-03-30T12:40:20.797Z,2.80
2023-03-30T12:43:08.752Z,2.37
2023-03-30T12:45:49.873Z,1.93
2023-03-30T12:48:50.468Z,1.97
2023-03-30T12:51:32.608Z,2.23
2023-03-30T12:54:26.740Z,2.17
2023-03-30T12:57:00.306Z,2.17
2023-03-30T13:00:11.899Z,2.03
2023-03-30T13:03:36.789Z,2.90
2023-03-30T13:06:12.157Z,1.97
2023-03-30T13:08:42.107Z,1.80
2023-03-30T13:11:22.111Z,1.90
2023-03-30T13:14:01.871Z,2.13
2023-03-30T13:16:51.278Z,2.07
2023-03-30T13:19:33.564Z,2.13
2023-03-30T13:22:13.480Z,2.03
2023-03-30T13:25:03.982Z,1.93
2023-03-30T13:27:37.798Z,2.10
2023-03-30T13:30:15.530Z,2.70
2023-03-30T13:33:23.702Z,1.97
2023-03-30T13:36:09.747Z,2.00
2023-03-30T13:38:56.419Z,2.00
2023-03-30T13:41:44.763Z,2.30
2023-03-30T13:44:46.966Z,2.43
2023-03-30T13:47:57.451Z,2.47
2023-03-30T13:50:31.499Z,1.83
2023-03-30T13:53:04.418Z,2.30
2023-03-30T13:55:34.745Z,2.07
2023-03-30T13:58:12.005Z,2.17
2023-03-30T14:00:48.661Z,2.43
2023-03-30T14:03:46.412Z,2.03
2023-03-30T14:06:14.636Z,1.67
2023-03-30T14:09:05.556Z,1.90
2023-03-30T14:11:48.216Z,1.93
2023-03-30T14:14:29.884Z,1.67
2023-03-30T14:16:59.537Z,1.53
2023-03-30T14:19:35.474Z,1.97
2023-03-30T14:22:11.433Z,1.50
2023-03-30T14:24:38.704Z,1.43
2023-03-30T14:27:14.567Z,1.33
2023-03-30T14:29:51.368Z,1.47
2023-03-30T14:32:23.361Z,1.67
2023-03-30T14:34:52.859Z,1.60
2023-03-30T14:37:23.118Z,1.97
2023-03-30T14:39:57.471Z,1.30
2023-03-30T14:42:27.596Z,1.00
2023-03-30T14:44:57.309Z,1.40
2023-03-30T14:47:27.332Z,1.23
2023-03-30T14:49:58.185Z,1.70
2023-03-30T14:52:38.715Z,1.40
2023-03-30T14:55:11.485Z,1.20
2023-03-30T14:57:41.847Z,1.63
2023-03-30T15:00:17.845Z,1.20
2023-03-30T15:02:46.677Z,1.50
2023-03-30T15:05:21.512Z,1.33
2023-03-30T15:07:50.551Z,1.47
2023-03-30T15:10:25.033Z,1.50
2023-03-30T15:12:56.057Z,1.73
2023-03-30T15:15:30.374Z,1.20
2023-03-30T15:17:58.332Z,1.40
2023-03-30T15:20:29.277Z,1.50
2023-03-30T15:22:56.794Z,1.47
2023-03-30T15:25:37.029Z,1.50
2023-03-30T15:28:07.390Z,1.50
2023-03-30T15:30:41.205Z,1.10
2023-03-30T15:33:32.320Z,1.40
2023-03-30T15:36:07.928Z,1.30
2023-03-30T15:38:52.869Z,1.13
2023-03-30T15:41:42.796Z,1.10
2023-03-30T15:44:20.868Z,1.53
2023-03-30T15:46:51.300Z,1.50
2023-03-30T15:49:22.565Z,1.43
2023-03-30T15:51:56.773Z,0.70
2023-03-30T15:54:40.121Z,0.60
2023-03-30T15:57:11.237Z,0.63
2023-03-30T15:59:44.793Z,0.60
2023-03-30T16:02:22.745Z,0.70
2023-03-30T16:04:51.701Z,0.70
2023-03-30T16:07:24.943Z,0.60
2023-03-30T16:09:52.726Z,0.70
2023-03-30T16:12:25.248Z,1.00
2023-03-30T16:14:53.709Z,0.80
2023-03-30T16:17:21.261Z,0.90
2023-03-30T16:19:48.542Z,1.00
2023-03-30T16:22:16.615Z,0.77
2023-03-30T16:24:44.151Z,0.90
2023-03-30T16:27:12.522Z,0.80
2023-03-30T16:29:39.626Z,0.87
2023-03-30T16:32:06.918Z,0.93
2023-03-30T16:34:34.186Z,1.10
2023-03-30T16:37:02.048Z,1.53
2023-03-30T16:39:30.590Z,1.10
2023-03-30T16:41:57.820Z,0.77
2023-03-30T16:44:25.508Z,1.30
2023-03-30T16:46:53.116Z,1.10
2023-03-30T16:49:24.510Z,0.83
2023-03-30T16:51:54.554Z,0.80
2023-03-30T16:54:31.059Z,0.97
2023-03-30T16:57:01.066Z,0.80
2023-03-30T16:59:32.671Z,0.70
2023-03-30T17:02:00.492Z,0.80
2023-03-30T17:04:27.954Z,0.70
2023-03-30T17:06:56.285Z,0.67
2023-03-30T17:09:23.492Z,1.00
2023-03-30T17:11:51.050Z,0.60
2023-03-30T17:14:18.399Z,0.70
2023-03-30T17:16:45.601Z,0.70
2023-03-30T17:19:14.428Z,0.73
2023-03-30T17:21:43.820Z,0.90
2023-03-30T17:24:12.656Z,1.17
2023-03-30T17:26:40.373Z,0.70
2023-03-30T17:29:07.551Z,1.00
2023-03-30T17:31:34.810Z,1.20
2023-03-30T17:34:01.949Z,0.90
2023-03-30T17:36:29.277Z,0.87
2023-03-30T17:38:56.759Z,0.80
2023-03-30T17:41:24.112Z,0.80
2023-03-30T17:43:51.670Z,0.70
2023-03-30T17:46:20.330Z,1.07
2023-03-30T17:48:48.288Z,0.80
2023-03-30T17:51:15.465Z,0.70
2023-03-30T17:53:42.878Z,0.93
2023-03-30T17:56:13.398Z,0.73
2023-03-30T17:58:40.517Z,0.50
2023-03-30T18:01:12.442Z,0.90
2023-03-30T18:03:40.197Z,0.70
2023-03-30T18:06:08.066Z,0.70
2023-03-30T18:08:36.263Z,0.70
2023-03-30T18:11:05.076Z,0.70
2023-03-30T18:13:32.766Z,0.90
2023-03-30T18:16:01.144Z,0.90
2023-03-30T18:18:31.937Z,0.70
2023-03-30T18:21:05.409Z,1.00
2023-03-30T18:23:34.539Z,0.80
2023-03-30T18:26:08.390Z,0.90
2023-03-30T18:28:40.532Z,0.83
2023-03-30T18:31:10.794Z,0.70
2023-03-30T18:33:39.367Z,0.70
2023-03-30T18:36:13.097Z,0.80
2023-03-30T18:38:40.944Z,0.80
2023-03-30T18:41:12.470Z,0.70
2023-03-30T18:43:39.581Z,1.53
2023-03-30T18:46:07.021Z,0.77
2023-03-30T18:48:34.509Z,1.00
2023-03-30T18:51:01.757Z,0.80
2023-03-30T18:53:29.272Z,0.80
2023-03-30T18:56:00.690Z,0.87
2023-03-30T18:58:33.833Z,0.83
2023-03-30T19:01:01.539Z,1.00
2023-03-30T19:03:30.219Z,0.77
2023-03-30T19:05:57.456Z,0.70
2023-03-30T19:08:26.579Z,0.70
2023-03-30T19:10:56.881Z,0.80
2023-03-30T19:13:26.202Z,0.70
2023-03-30T19:15:53.691Z,0.93
2023-03-30T19:18:21.452Z,1.03
2023-03-30T19:20:51.274Z,0.80
2023-03-30T19:23:23.064Z,1.10
2023-03-30T19:25:50.843Z,0.60
2023-03-30T19:28:19.125Z,0.80
2023-03-30T19:30:46.723Z,0.90
2023-03-30T19:33:16.870Z,0.87
2023-03-30T19:35:46.334Z,0.90
2023-03-30T19:38:14.829Z,1.00
2023-03-30T19:40:42.707Z,1.10
2023-03-30T19:43:10.540Z,0.90
2023-03-30T19:45:38.313Z,0.70
2023-03-30T19:48:05.595Z,1.10
2023-03-30T19:50:32.828Z,1.10
2023-03-30T19:52:59.978Z,0.93
2023-03-30T19:55:27.638Z,0.80
2023-03-30T19:57:54.921Z,0.90
2023-03-30T20:00:22.122Z,0.80
2023-03-30T20:02:52.963Z,0.80
2023-03-30T20:05:22.862Z,0.73
2023-03-30T20:07:50.547Z,0.70
2023-03-30T20:10:25.053Z,0.90
2023-03-30T20:12:53.582Z,0.67
2023-03-30T20:15:23.470Z,0.80
2023-03-30T20:17:58.629Z,0.80
2023-03-30T20:20:26.300Z,1.33
2023-03-30T20:22:56.517Z,0.90
2023-03-30T20:25:24.790Z,0.80
2023-03-30T20:27:52.975Z,1.00
2023-03-30T20:30:21.183Z,0.80
2023-03-30T20:33:00.199Z,0.93
2023-03-30T20:35:37.884Z,0.73
2023-03-30T20:38:06.281Z,1.00
2023-03-30T20:40:34.786Z,0.70
2023-03-30T20:43:10.069Z,0.90
2023-03-30T20:45:46.408Z,1.00
2023-03-30T20:48:27.032Z,0.80
2023-03-30T20:50:55.938Z,0.80
2023-03-30T20:53:23.722Z,0.70
2023-03-30T20:55:51.137Z,0.90
2023-03-30T20:58:18.228Z,0.87
2023-03-30T21:00:47.447Z,0.80
2023-03-30T21:03:15.564Z,0.80
2023-03-30T21:05:42.694Z,0.90
2023-03-30T21:08:09.811Z,1.00
2023-03-30T21:10:40.688Z,0.50
2023-03-30T21:13:07.744Z,1.00
2023-03-30T21:15:35.140Z,1.00
2023-03-30T21:18:02.453Z,0.90
2023-03-30T21:20:31.017Z,0.80
2023-03-30T21:22:58.186Z,0.90
2023-03-30T21:25:25.284Z,0.70
2023-03-30T21:27:52.427Z,1.40
2023-03-30T21:30:19.688Z,0.80
2023-03-30T21:32:46.768Z,1.27
2023-03-30T21:35:13.899Z,1.10
2023-03-30T21:37:41.031Z,0.80
2023-03-30T21:40:08.808Z,1.33
2023-03-30T21:42:35.978Z,1.00
2023-03-30T21:45:03.246Z,0.90
2023-03-30T21:47:30.496Z,1.30
2023-03-30T21:49:57.562Z,1.90
2023-03-30T21:52:24.782Z,1.10
2023-03-30T21:54:52.125Z,1.07
2023-03-30T21:57:19.306Z,0.90
2023-03-30T21:59:46.538Z,1.00
2023-03-30T22:02:13.640Z,0.87
2023-03-30T22:04:44.135Z,0.90
2023-03-30T22:07:11.624Z,0.80
2023-03-30T22:09:38.944Z,1.00
2023-03-30T22:12:06.713Z,1.00
2023-03-30T22:14:34.288Z,1.40
2023-03-30T22:17:01.382Z,0.83
2023-03-30T22:19:31.981Z,0.90
2023-03-30T22:21:59.112Z,0.77
2023-03-30T22:24:26.241Z,1.00
2023-03-30T22:26:53.303Z,1.07
2023-03-30T22:29:20.955Z,0.87
2023-03-30T22:31:48.129Z,1.10
2023-03-30T22:34:15.476Z,1.10
2023-03-30T22:36:43.468Z,0.70
2023-03-30T22:39:10.641Z,1.00
2023-03-30T22:41:38.229Z,0.80
2023-03-30T22:44:05.421Z,1.07
2023-03-30T22:46:32.582Z,0.93
2023-03-30T22:49:00.246Z,1.00
2023-03-30T22:51:27.477Z,1.23
2023-03-30T22:54:00.188Z,0.90
2023-03-30T22:56:29.498Z,0.70
2023-03-30T22:58:57.414Z,1.03
2023-03-30T23:01:24.664Z,0.90
2023-03-30T23:03:53.623Z,0.90
2023-03-30T23:06:21.496Z,1.20
2023-03-30T23:08:49.170Z,1.20
2023-03-30T23:11:16.702Z,1.63
2023-03-30T23:13:43.979Z,1.30
2023-03-30T23:16:11.226Z,2.40
2023-03-30T23:18:39.087Z,1.30
2023-03-30T23:21:08.176Z,1.20
2023-03-30T23:23:39.147Z,0.90
2023-03-30T23:26:10.175Z,1.03
2023-03-30T23:28:40.405Z,1.10
2023-03-30T23:31:17.572Z,0.80
2023-03-30T23:33:45.768Z,0.90
2023-03-30T23:36:13.936Z,1.30
2023-03-30T23:38:41.769Z,0.80
2023-03-30T23:41:09.865Z,1.20
2023-03-30T23:43:37.010Z,0.70
2023-03-30T23:46:04.849Z,1.10
2023-03-30T23:48:32.784Z,1.00
2023-03-30T23:50:59.828Z,1.00
2023-03-30T23:53:27.085Z,0.90
2023-03-30T23:55:54.875Z,1.37
2023-03-30T23:58:22.537Z,1.83
